createdAt,value
2022-09-12T00:02:35.783Z,24.19
2022-09-12T00:07:38.314Z,24.35
2022-09-12T00:12:40.943Z,23.60
2022-09-12T00:17:43.459Z,24.08
2022-09-12T00:22:45.926Z,24.19
2022-09-12T00:27:48.462Z,24.00
2022-09-12T00:32:52.103Z,24.39
2022-09-12T00:37:54.513Z,24.96
2022-09-12T00:42:56.918Z,23.97
2022-09-12T00:48:04.178Z,25.03
2022-09-12T00:53:09.778Z,24.92
2022-09-12T00:58:27.424Z,25.06
2022-09-12T01:03:30.046Z,24.56
2022-09-12T01:08:34.833Z,24.69
2022-09-12T01:13:37.951Z,24.63
2022-09-12T01:18:46.863Z,24.55
2022-09-12T01:24:12.186Z,24.47
2022-09-12T01:29:40.492Z,24.34
2022-09-12T01:34:54.238Z,23.93
2022-09-12T01:40:27.423Z,24.23
2022-09-12T01:45:34.031Z,24.17
2022-09-12T01:50:42.273Z,23.76
2022-09-12T01:56:09.259Z,23.85
2022-09-12T02:01:20.662Z,23.90
2022-09-12T02:06:33.733Z,23.80
2022-09-12T02:11:42.365Z,23.79
2022-09-12T02:16:50.103Z,22.56
2022-09-12T02:21:59.161Z,23.32
2022-09-12T02:27:25.670Z,23.49
2022-09-12T02:32:38.150Z,22.88
2022-09-12T02:38:03.110Z,23.08
2022-09-12T02:43:07.010Z,23.08
2022-09-12T02:48:09.400Z,23.23
2022-09-12T02:53:12.403Z,22.08
2022-09-12T02:58:21.359Z,22.17
2022-09-12T03:03:42.712Z,22.79
2022-09-12T03:09:00.977Z,22.67
2022-09-12T03:14:32.471Z,22.81
2022-09-12T03:19:39.134Z,22.68
2022-09-12T03:25:00.410Z,22.70
2022-09-12T03:30:05.670Z,22.81
2022-09-12T03:35:08.430Z,22.94
2022-09-12T03:40:13.160Z,22.79
2022-09-12T03:45:17.083Z,22.60
2022-09-12T03:50:19.544Z,22.48
2022-09-12T03:55:22.116Z,22.75
2022-09-12T04:00:25.202Z,22.43
2022-09-12T04:05:27.719Z,22.74
2022-09-12T04:10:30.195Z,22.41
2022-09-12T04:15:32.979Z,22.38
2022-09-12T04:20:37.351Z,22.22
2022-09-12T04:25:39.839Z,22.48
2022-09-12T04:30:42.374Z,21.95
2022-09-12T04:35:45.947Z,22.21
2022-09-12T04:40:48.447Z,21.87
2022-09-12T04:45:54.686Z,22.26
2022-09-12T04:50:57.225Z,22.57
2022-09-12T04:56:03.606Z,22.71
2022-09-12T05:01:11.828Z,21.54
2022-09-12T05:06:18.026Z,21.77
2022-09-12T05:11:26.670Z,22.99
2022-09-12T05:16:33.558Z,22.58
2022-09-12T05:21:36.155Z,22.91
2022-09-12T05:26:38.893Z,23.00
2022-09-12T05:31:42.133Z,23.24
2022-09-12T05:36:44.703Z,22.20
2022-09-12T05:41:47.853Z,23.42
2022-09-12T05:46:51.833Z,23.64
2022-09-12T05:51:54.233Z,23.62
2022-09-12T05:56:57.271Z,23.72
2022-09-12T06:01:59.908Z,23.98
2022-09-12T06:07:02.335Z,24.12
2022-09-12T06:12:05.152Z,24.06
2022-09-12T06:17:07.647Z,24.26
2022-09-12T06:22:10.489Z,24.38
2022-09-12T06:27:12.858Z,24.52
2022-09-12T06:32:15.164Z,24.75
2022-09-12T06:37:17.597Z,24.78
2022-09-12T06:42:20.604Z,24.97
2022-09-12T06:47:23.946Z,25.04
2022-09-12T06:52:26.320Z,25.19
2022-09-12T06:57:31.028Z,25.24
2022-09-12T07:02:33.441Z,25.25
2022-09-12T07:07:36.486Z,25.37
2022-09-12T07:12:39.123Z,25.26
2022-09-12T07:17:41.537Z,25.24
2022-09-12T07:22:44.125Z,25.70
2022-09-12T07:27:51.048Z,25.84
2022-09-12T07:32:56.591Z,25.87
2022-09-12T07:37:58.879Z,25.96
2022-09-12T07:43:01.263Z,26.09
2022-09-12T07:48:04.198Z,26.00
2022-09-12T07:53:06.948Z,25.93
2022-09-12T07:58:09.356Z,26.13
2022-09-12T08:03:11.935Z,25.44
2022-09-12T08:08:14.456Z,25.79
2022-09-12T08:13:18.037Z,26.25
2022-09-12T08:18:42.622Z,25.85
2022-09-12T08:23:45.603Z,26.54
2022-09-12T08:28:48.153Z,26.44
2022-09-12T08:33:51.394Z,26.71
2022-09-12T08:39:00.349Z,26.25
2022-09-12T08:44:14.106Z,27.14
2022-09-12T08:49:28.785Z,27.09
2022-09-12T08:54:35.155Z,26.58
2022-09-12T08:59:43.442Z,27.27
2022-09-12T09:04:53.504Z,26.79
2022-09-12T09:10:20.600Z,27.60
2022-09-12T09:16:00.809Z,27.61
2022-09-12T09:21:10.668Z,27.60
2022-09-12T09:26:29.301Z,26.90
2022-09-12T09:31:34.679Z,27.60
2022-09-12T09:37:08.892Z,26.65
2022-09-12T09:42:31.609Z,27.73
2022-09-12T09:47:34.065Z,27.37
2022-09-12T09:52:39.813Z,27.90
2022-09-12T09:57:45.411Z,27.89
2022-09-12T10:03:13.728Z,27.90
2022-09-12T10:08:26.926Z,28.09
2022-09-12T10:13:38.134Z,28.05
2022-09-12T10:19:01.141Z,28.09
2022-09-12T10:24:12.371Z,28.33
2022-09-12T10:29:29.010Z,28.27
2022-09-12T10:34:45.964Z,28.48
2022-09-12T10:39:55.244Z,28.72
2022-09-12T10:44:57.607Z,28.96
2022-09-12T10:50:29.076Z,29.23
2022-09-12T10:55:36.084Z,29.13
2022-09-12T11:00:45.927Z,29.14
2022-09-12T11:06:04.123Z,29.30
2022-09-12T11:11:12.280Z,29.24
2022-09-12T11:16:23.623Z,29.35
2022-09-12T11:21:49.702Z,29.53
2022-09-12T11:27:05.541Z,29.31
2022-09-12T11:32:42.056Z,29.77
2022-09-12T11:37:47.475Z,29.99
2022-09-12T11:42:54.632Z,29.74
2022-09-12T11:48:01.879Z,29.90
2022-09-12T11:53:17.427Z,29.55
2022-09-12T11:58:24.984Z,29.80
2022-09-12T12:03:40.189Z,29.78
2022-09-12T12:08:45.136Z,29.72
2022-09-12T12:13:56.575Z,29.95
2022-09-12T12:19:01.468Z,29.82
2022-09-12T12:24:10.059Z,30.16
2022-09-12T12:29:17.938Z,30.36
2022-09-12T12:34:35.709Z,30.68
2022-09-12T12:39:38.053Z,30.86
2022-09-12T12:44:47.787Z,30.83
2022-09-12T12:49:58.028Z,30.66
2022-09-12T12:55:04.696Z,30.49
2022-09-12T13:00:26.522Z,30.64
2022-09-12T13:05:31.689Z,30.87
2022-09-12T13:10:34.982Z,30.71
2022-09-12T13:15:37.348Z,31.17
2022-09-12T13:20:52.948Z,31.04
2022-09-12T13:25:58.624Z,31.21
2022-09-12T13:31:11.834Z,31.54
2022-09-12T13:36:30.679Z,31.47
2022-09-12T13:42:00.909Z,31.64
2022-09-12T13:47:05.692Z,31.81
2022-09-12T13:52:18.668Z,32.05
2022-09-12T13:57:38.947Z,32.24
2022-09-12T14:02:41.510Z,32.38
2022-09-12T14:07:55.571Z,32.30
2022-09-12T14:12:59.489Z,32.71
2022-09-12T14:18:04.056Z,33.03
2022-09-12T14:23:29.815Z,33.44
2022-09-12T14:28:35.773Z,33.44
2022-09-12T14:33:53.052Z,33.67
2022-09-12T14:39:02.648Z,33.85
2022-09-12T14:44:16.962Z,34.16
2022-09-12T14:49:49.286Z,34.59
2022-09-12T14:55:02.771Z,35.18
2022-09-12T15:00:14.583Z,35.79
2022-09-12T15:05:26.906Z,35.93
2022-09-12T15:10:39.089Z,36.36
2022-09-12T15:15:45.002Z,36.33
2022-09-12T15:20:50.634Z,36.00
2022-09-12T15:25:55.615Z,36.06
2022-09-12T15:31:05.433Z,35.69
2022-09-12T15:36:17.197Z,35.42
2022-09-12T15:41:39.071Z,35.29
2022-09-12T15:46:41.719Z,34.30
2022-09-12T15:51:44.354Z,34.69
2022-09-12T15:56:47.161Z,34.26
2022-09-12T16:01:49.778Z,33.69
2022-09-12T16:06:52.778Z,33.34
2022-09-12T16:11:55.510Z,32.50
2022-09-12T16:16:57.841Z,31.94
2022-09-12T16:22:04.619Z,31.15
2022-09-12T16:27:07.424Z,30.31
2022-09-12T16:32:09.811Z,29.68
2022-09-12T16:37:12.162Z,29.42
2022-09-12T16:42:14.463Z,28.91
2022-09-12T16:47:16.947Z,28.86
2022-09-12T16:52:22.391Z,28.64
2022-09-12T16:57:27.499Z,28.49
2022-09-12T17:02:31.991Z,28.40
2022-09-12T17:07:35.267Z,28.13
2022-09-12T17:12:37.924Z,28.04
2022-09-12T17:17:41.898Z,27.55
2022-09-12T17:22:44.588Z,27.68
2022-09-12T17:27:47.049Z,27.71
2022-09-12T17:32:53.761Z,27.33
2022-09-12T17:37:56.263Z,27.23
2022-09-12T17:43:00.329Z,27.36
2022-09-12T17:48:03.030Z,27.28
2022-09-12T17:53:09.922Z,27.14
2022-09-12T17:58:13.174Z,27.15
2022-09-12T18:03:16.202Z,26.97
2022-09-12T18:08:19.690Z,26.90
2022-09-12T18:13:22.272Z,26.80
2022-09-12T18:18:24.791Z,26.63
2022-09-12T18:23:27.852Z,26.80
2022-09-12T18:28:57.594Z,26.55
2022-09-12T18:34:01.617Z,26.25
2022-09-12T18:39:04.235Z,26.56
2022-09-12T18:44:07.621Z,26.64
2022-09-12T18:49:12.919Z,26.48
2022-09-12T18:54:15.964Z,26.38
2022-09-12T18:59:18.427Z,26.36
2022-09-12T19:04:21.037Z,26.52
2022-09-12T19:09:23.905Z,26.37
2022-09-12T19:14:27.404Z,25.94
2022-09-12T19:19:29.768Z,26.27
2022-09-12T19:24:34.823Z,26.23
2022-09-12T19:30:06.024Z,26.15
2022-09-12T19:35:36.871Z,25.43
2022-09-12T19:46:42.528Z,24.99
2022-09-12T20:05:43.040Z,24.98
2022-09-12T21:04:16.504Z,24.42
2022-09-12T21:09:19.629Z,25.40
2022-09-12T21:14:22.406Z,24.67
2022-09-12T21:19:24.988Z,25.32
2022-09-12T21:24:30.592Z,25.23
2022-09-12T21:29:33.243Z,25.05
2022-09-12T21:34:36.357Z,25.06
2022-09-12T21:39:39.423Z,24.18
2022-09-12T21:44:43.495Z,24.80
2022-09-12T21:49:46.152Z,24.44
2022-09-12T21:54:48.507Z,24.79
2022-09-12T21:59:51.098Z,24.38
2022-09-12T22:04:53.536Z,24.40
2022-09-12T22:09:58.588Z,24.61
2022-09-12T22:15:17.397Z,24.19
2022-09-12T22:20:28.235Z,24.43
2022-09-12T22:25:32.385Z,24.29
2022-09-12T22:30:37.125Z,24.23
2022-09-12T22:35:42.951Z,24.35
2022-09-12T22:40:48.843Z,24.54
2022-09-12T22:45:53.639Z,24.25
2022-09-12T22:50:57.456Z,24.41
2022-09-12T22:56:05.608Z,24.42
2022-09-12T23:01:15.968Z,24.00
2022-09-12T23:06:21.150Z,24.12
2022-09-12T23:11:25.921Z,24.48
2022-09-12T23:16:32.626Z,23.80
2022-09-12T23:21:37.156Z,24.11
2022-09-12T23:26:43.000Z,24.28
2022-09-12T23:31:45.469Z,24.55
2022-09-12T23:36:47.910Z,24.00
2022-09-12T23:41:52.000Z,23.56
2022-09-12T23:46:54.481Z,23.84
2022-09-12T23:51:57.167Z,23.52
2022-09-12T23:56:59.522Z,23.44
